sensor_id;sensor_type;location;lat;lon;timestamp;temperature;humidity
2973;DHT22;1496;51.404;7.232;2023-11-25T00:01:45;2.60;99.90
2973;DHT22;1496;51.404;7.232;2023-11-25T00:04:11;2.50;99.90
2973;DHT22;1496;51.404;7.232;2023-11-25T00:06:36;2.50;99.90
2973;DHT22;1496;51.404;7.232;2023-11-25T00:09:02;2.40;99.90
2973;DHT22;1496;51.404;7.232;2023-11-25T00:11:28;2.30;99.90
2973;DHT22;1496;51.404;7.232;2023-11-25T00:13:54;2.40;99.90
2973;DHT22;1496;51.404;7.232;2023-11-25T00:16:20;2.30;99.90
2973;DHT22;1496;51.404;7.232;2023-11-25T00:18:45;2.30;99.90
2973;DHT22;1496;51.404;7.232;2023-11-25T00:21:11;2.30;99.90
2973;DHT22;1496;51.404;7.232;2023-11-25T00:23:36;2.30;1.00
2973;DHT22;1496;51.404;7.232;2023-11-25T00:26:02;2.40;1.00
2973;DHT22;1496;51.404;7.232;2023-11-25T00:28:29;2.40;1.00
2973;DHT22;1496;51.404;7.232;2023-11-25T00:30:55;2.30;1.00
2973;DHT22;1496;51.404;7.232;2023-11-25T00:33:21;2.40;1.00
2973;DHT22;1496;51.404;7.232;2023-11-25T00:35:46;2.40;1.00
2973;DHT22;1496;51.404;7.232;2023-11-25T00:38:13;2.50;1.00
2973;DHT22;1496;51.404;7.232;2023-11-25T00:40:43;2.50;1.00
2973;DHT22;1496;51.404;7.232;2023-11-25T00:43:09;2.50;1.00
2973;DHT22;1496;51.404;7.232;2023-11-25T00:45:34;2.50;1.00
2973;DHT22;1496;51.404;7.232;2023-11-25T00:48:00;2.60;1.00
2973;DHT22;1496;51.404;7.232;2023-11-25T00:50:26;2.60;1.00
2973;DHT22;1496;51.404;7.232;2023-11-25T00:52:52;2.60;99.90
2973;DHT22;1496;51.404;7.232;2023-11-25T00:55:17;2.70;99.90
2973;DHT22;1496;51.404;7.232;2023-11-25T00:57:43;2.80;99.90
2973;DHT22;1496;51.404;7.232;2023-11-25T01:00:09;2.70;99.90
2973;DHT22;1496;51.404;7.232;2023-11-25T01:02:44;2.80;99.90
2973;DHT22;1496;51.404;7.232;2023-11-25T01:05:10;2.60;99.90
2973;DHT22;1496;51.404;7.232;2023-11-25T01:07:36;2.50;99.90
2973;DHT22;1496;51.404;7.232;2023-11-25T01:10:02;2.60;99.90
2973;DHT22;1496;51.404;7.232;2023-11-25T01:12:29;2.50;99.90
2973;DHT22;1496;51.404;7.232;2023-11-25T01:14:56;2.60;1.00
2973;DHT22;1496;51.404;7.232;2023-11-25T01:17:22;2.50;1.00
2973;DHT22;1496;51.404;7.232;2023-11-25T01:19:49;2.50;1.00
2973;DHT22;1496;51.404;7.232;2023-11-25T01:22:15;2.50;1.00
2973;DHT22;1496;51.404;7.232;2023-11-25T01:24:41;2.60;1.00
2973;DHT22;1496;51.404;7.232;2023-11-25T01:27:07;2.60;1.00
2973;DHT22;1496;51.404;7.232;2023-11-25T01:29:33;2.60;1.00
2973;DHT22;1496;51.404;7.232;2023-11-25T01:31:58;2.60;1.00
2973;DHT22;1496;51.404;7.232;2023-11-25T01:34:24;2.60;1.00
2973;DHT22;1496;51.404;7.232;2023-11-25T01:36:50;2.60;1.00
2973;DHT22;1496;51.404;7.232;2023-11-25T01:39:16;2.60;1.00
2973;DHT22;1496;51.404;7.232;2023-11-25T01:41:42;2.60;1.00
2973;DHT22;1496;51.404;7.232;2023-11-25T01:44:09;2.50;1.00
2973;DHT22;1496;51.404;7.232;2023-11-25T01:46:36;2.60;1.00
2973;DHT22;1496;51.404;7.232;2023-11-25T01:49:06;2.60;1.00
2973;DHT22;1496;51.404;7.232;2023-11-25T01:51:35;2.70;1.00
2973;DHT22;1496;51.404;7.232;2023-11-25T01:54:06;2.70;1.00
2973;DHT22;1496;51.404;7.232;2023-11-25T01:56:32;2.80;1.00
2973;DHT22;1496;51.404;7.232;2023-11-25T01:58:59;2.80;1.00
2973;DHT22;1496;51.404;7.232;2023-11-25T02:01:27;2.80;1.00
2973;DHT22;1496;51.404;7.232;2023-11-25T02:03:55;2.80;1.00
2973;DHT22;1496;51.404;7.232;2023-11-25T02:06:22;2.80;1.00
2973;DHT22;1496;51.404;7.232;2023-11-25T02:08:49;2.50;99.90
2973;DHT22;1496;51.404;7.232;2023-11-25T02:11:16;2.40;99.90
2973;DHT22;1496;51.404;7.232;2023-11-25T02:13:42;2.30;1.00
2973;DHT22;1496;51.404;7.232;2023-11-25T02:16:08;2.20;1.00
2973;DHT22;1496;51.404;7.232;2023-11-25T02:18:37;2.10;1.00
2973;DHT22;1496;51.404;7.232;2023-11-25T02:21:03;2.00;1.00
2973;DHT22;1496;51.404;7.232;2023-11-25T02:23:31;2.00;1.00
2973;DHT22;1496;51.404;7.232;2023-11-25T02:26:00;2.00;1.00
2973;DHT22;1496;51.404;7.232;2023-11-25T02:28:25;2.00;1.00
2973;DHT22;1496;51.404;7.232;2023-11-25T02:30:52;2.00;1.00
2973;DHT22;1496;51.404;7.232;2023-11-25T02:33:18;1.90;1.00
2973;DHT22;1496;51.404;7.232;2023-11-25T02:35:44;1.90;1.00
2973;DHT22;1496;51.404;7.232;2023-11-25T02:38:12;1.90;1.00
2973;DHT22;1496;51.404;7.232;2023-11-25T02:40:39;1.90;1.00
2973;DHT22;1496;51.404;7.232;2023-11-25T02:43:05;1.90;1.00
2973;DHT22;1496;51.404;7.232;2023-11-25T02:45:33;1.90;1.00
2973;DHT22;1496;51.404;7.232;2023-11-25T02:47:59;1.90;1.00
2973;DHT22;1496;51.404;7.232;2023-11-25T02:50:25;1.90;1.00
2973;DHT22;1496;51.404;7.232;2023-11-25T02:52:51;1.90;1.00
2973;DHT22;1496;51.404;7.232;2023-11-25T02:55:16;2.00;1.00
2973;DHT22;1496;51.404;7.232;2023-11-25T02:57:43;2.10;1.00
2973;DHT22;1496;51.404;7.232;2023-11-25T03:00:13;2.10;1.00
2973;DHT22;1496;51.404;7.232;2023-11-25T03:02:49;2.20;1.00
2973;DHT22;1496;51.404;7.232;2023-11-25T03:05:17;2.20;1.00
2973;DHT22;1496;51.404;7.232;2023-11-25T03:07:43;2.10;1.00
2973;DHT22;1496;51.404;7.232;2023-11-25T03:10:10;2.10;1.00
2973;DHT22;1496;51.404;7.232;2023-11-25T03:12:36;2.10;1.00
2973;DHT22;1496;51.404;7.232;2023-11-25T03:15:02;2.10;1.00
2973;DHT22;1496;51.404;7.232;2023-11-25T03:17:28;2.00;1.00
2973;DHT22;1496;51.404;7.232;2023-11-25T03:19:55;1.90;1.00
2973;DHT22;1496;51.404;7.232;2023-11-25T03:22:21;1.90;1.00
2973;DHT22;1496;51.404;7.232;2023-11-25T03:24:47;1.80;1.00
2973;DHT22;1496;51.404;7.232;2023-11-25T03:27:14;1.80;1.00
2973;DHT22;1496;51.404;7.232;2023-11-25T03:29:41;1.80;1.00
2973;DHT22;1496;51.404;7.232;2023-11-25T03:32:07;1.80;1.00
2973;DHT22;1496;51.404;7.232;2023-11-25T03:34:33;1.80;1.00
2973;DHT22;1496;51.404;7.232;2023-11-25T03:36:59;1.80;1.00
2973;DHT22;1496;51.404;7.232;2023-11-25T03:39:24;1.80;1.00
2973;DHT22;1496;51.404;7.232;2023-11-25T03:41:52;1.80;1.00
2973;DHT22;1496;51.404;7.232;2023-11-25T03:44:18;1.80;1.00
2973;DHT22;1496;51.404;7.232;2023-11-25T03:46:44;1.80;45.30
2973;DHT22;1496;51.404;7.232;2023-11-25T03:49:09;1.80;93.90
2973;DHT22;1496;51.404;7.232;2023-11-25T03:51:35;1.80;49.60
2973;DHT22;1496;51.404;7.232;2023-11-25T03:54:01;1.90;92.80
2973;DHT22;1496;51.404;7.232;2023-11-25T03:56:27;1.90;73.80
2973;DHT22;1496;51.404;7.232;2023-11-25T03:58:53;1.80;33.80
2973;DHT22;1496;51.404;7.232;2023-11-25T04:01:19;1.90;99.90
2973;DHT22;1496;51.404;7.232;2023-11-25T04:03:45;2.10;99.90
2973;DHT22;1496;51.404;7.232;2023-11-25T04:06:12;2.20;99.90
2973;DHT22;1496;51.404;7.232;2023-11-25T04:08:38;2.30;99.90
2973;DHT22;1496;51.404;7.232;2023-11-25T04:11:05;2.30;99.90
2973;DHT22;1496;51.404;7.232;2023-11-25T04:13:31;2.50;61.30
2973;DHT22;1496;51.404;7.232;2023-11-25T04:15:57;2.50;10.00
2973;DHT22;1496;51.404;7.232;2023-11-25T04:18:25;2.60;1.00
2973;DHT22;1496;51.404;7.232;2023-11-25T04:20:51;2.60;1.00
2973;DHT22;1496;51.404;7.232;2023-11-25T04:23:17;2.50;1.00
2973;DHT22;1496;51.404;7.232;2023-11-25T04:25:44;2.40;1.00
2973;DHT22;1496;51.404;7.232;2023-11-25T04:28:13;2.40;1.00
2973;DHT22;1496;51.404;7.232;2023-11-25T04:30:39;2.40;1.00
2973;DHT22;1496;51.404;7.232;2023-11-25T04:33:07;2.40;1.00
2973;DHT22;1496;51.404;7.232;2023-11-25T04:35:35;2.30;6.20
2973;DHT22;1496;51.404;7.232;2023-11-25T04:38:03;2.30;42.60
2973;DHT22;1496;51.404;7.232;2023-11-25T04:40:28;2.30;94.70
2973;DHT22;1496;51.404;7.232;2023-11-25T04:42:54;2.30;99.00
2973;DHT22;1496;51.404;7.232;2023-11-25T04:45:20;2.30;99.90
2973;DHT22;1496;51.404;7.232;2023-11-25T04:47:49;2.20;66.90
2973;DHT22;1496;51.404;7.232;2023-11-25T04:50:21;2.20;40.50
2973;DHT22;1496;51.404;7.232;2023-11-25T04:52:46;2.10;71.10
2973;DHT22;1496;51.404;7.232;2023-11-25T04:55:13;2.10;99.90
2973;DHT22;1496;51.404;7.232;2023-11-25T04:57:39;2.20;99.90
2973;DHT22;1496;51.404;7.232;2023-11-25T05:00:05;2.20;99.90
2973;DHT22;1496;51.404;7.232;2023-11-25T05:02:39;2.20;99.90
2973;DHT22;1496;51.404;7.232;2023-11-25T05:05:06;2.20;99.90
2973;DHT22;1496;51.404;7.232;2023-11-25T05:07:32;2.20;99.90
2973;DHT22;1496;51.404;7.232;2023-11-25T05:09:59;2.20;99.90
2973;DHT22;1496;51.404;7.232;2023-11-25T05:12:25;2.20;99.90
2973;DHT22;1496;51.404;7.232;2023-11-25T05:14:51;2.20;99.90
2973;DHT22;1496;51.404;7.232;2023-11-25T05:17:18;2.30;99.90
2973;DHT22;1496;51.404;7.232;2023-11-25T05:19:43;2.30;99.90
2973;DHT22;1496;51.404;7.232;2023-11-25T05:22:09;2.30;99.90
2973;DHT22;1496;51.404;7.232;2023-11-25T05:24:35;2.30;99.90
2973;DHT22;1496;51.404;7.232;2023-11-25T05:27:04;2.40;99.90
2973;DHT22;1496;51.404;7.232;2023-11-25T05:29:30;2.40;99.90
2973;DHT22;1496;51.404;7.232;2023-11-25T05:31:58;2.40;1.00
2973;DHT22;1496;51.404;7.232;2023-11-25T05:34:24;2.50;1.00
2973;DHT22;1496;51.404;7.232;2023-11-25T05:36:50;2.50;99.90
2973;DHT22;1496;51.404;7.232;2023-11-25T05:39:16;2.50;99.90
2973;DHT22;1496;51.404;7.232;2023-11-25T05:41:48;2.50;99.90
2973;DHT22;1496;51.404;7.232;2023-11-25T05:44:15;2.60;99.90
2973;DHT22;1496;51.404;7.232;2023-11-25T05:46:40;2.70;99.90
2973;DHT22;1496;51.404;7.232;2023-11-25T05:49:06;2.70;99.90
2973;DHT22;1496;51.404;7.232;2023-11-25T05:51:35;2.70;92.90
2973;DHT22;1496;51.404;7.232;2023-11-25T05:54:04;2.70;26.90
2973;DHT22;1496;51.404;7.232;2023-11-25T05:56:30;2.80;18.30
2973;DHT22;1496;51.404;7.232;2023-11-25T05:58:57;2.90;1.00
2973;DHT22;1496;51.404;7.232;2023-11-25T06:01:23;3.00;1.00
2973;DHT22;1496;51.404;7.232;2023-11-25T06:03:49;3.00;1.00
2973;DHT22;1496;51.404;7.232;2023-11-25T06:06:18;3.00;1.00
2973;DHT22;1496;51.404;7.232;2023-11-25T06:08:49;3.10;1.00
2973;DHT22;1496;51.404;7.232;2023-11-25T06:11:23;3.10;1.00
2973;DHT22;1496;51.404;7.232;2023-11-25T06:13:52;3.10;1.00
2973;DHT22;1496;51.404;7.232;2023-11-25T06:16:19;3.00;1.00
2973;DHT22;1496;51.404;7.232;2023-11-25T06:18:44;3.00;1.00
2973;DHT22;1496;51.404;7.232;2023-11-25T06:21:10;3.00;1.00
2973;DHT22;1496;51.404;7.232;2023-11-25T06:23:36;2.90;1.00
2973;DHT22;1496;51.404;7.232;2023-11-25T06:26:02;2.90;1.00
2973;DHT22;1496;51.404;7.232;2023-11-25T06:28:27;2.90;1.00
2973;DHT22;1496;51.404;7.232;2023-11-25T06:30:54;2.90;1.00
2973;DHT22;1496;51.404;7.232;2023-11-25T06:33:21;2.90;1.00
2973;DHT22;1496;51.404;7.232;2023-11-25T06:35:51;2.90;1.00
2973;DHT22;1496;51.404;7.232;2023-11-25T06:38:19;2.90;1.00
2973;DHT22;1496;51.404;7.232;2023-11-25T06:40:44;2.90;1.00
2973;DHT22;1496;51.404;7.232;2023-11-25T06:43:11;2.90;1.00
2973;DHT22;1496;51.404;7.232;2023-11-25T06:45:36;2.90;1.00
2973;DHT22;1496;51.404;7.232;2023-11-25T06:48:06;2.90;1.00
2973;DHT22;1496;51.404;7.232;2023-11-25T06:50:32;2.80;62.90
2973;DHT22;1496;51.404;7.232;2023-11-25T06:52:57;2.80;99.90
2973;DHT22;1496;51.404;7.232;2023-11-25T06:55:23;2.80;99.90
2973;DHT22;1496;51.404;7.232;2023-11-25T06:57:48;2.90;99.90
2973;DHT22;1496;51.404;7.232;2023-11-25T07:00:16;2.90;1.00
2973;DHT22;1496;51.404;7.232;2023-11-25T07:02:42;2.90;1.00
2973;DHT22;1496;51.404;7.232;2023-11-25T07:05:08;2.90;99.90
2973;DHT22;1496;51.404;7.232;2023-11-25T07:07:35;2.90;1.00
2973;DHT22;1496;51.404;7.232;2023-11-25T07:10:01;2.90;99.90
2973;DHT22;1496;51.404;7.232;2023-11-25T07:12:26;2.90;99.90
2973;DHT22;1496;51.404;7.232;2023-11-25T07:14:52;2.80;99.90
2973;DHT22;1496;51.404;7.232;2023-11-25T07:17:18;2.80;1.00
2973;DHT22;1496;51.404;7.232;2023-11-25T07:19:43;2.80;99.90
2973;DHT22;1496;51.404;7.232;2023-11-25T07:22:10;2.80;1.00
2973;DHT22;1496;51.404;7.232;2023-11-25T07:24:36;2.70;99.90
2973;DHT22;1496;51.404;7.232;2023-11-25T07:27:05;2.80;1.00
2973;DHT22;1496;51.404;7.232;2023-11-25T07:29:32;2.80;1.00
2973;DHT22;1496;51.404;7.232;2023-11-25T07:32:02;2.80;99.90
2973;DHT22;1496;51.404;7.232;2023-11-25T07:34:28;2.80;99.90
2973;DHT22;1496;51.404;7.232;2023-11-25T07:36:55;2.90;99.90
2973;DHT22;1496;51.404;7.232;2023-11-25T07:39:21;2.90;99.90
2973;DHT22;1496;51.404;7.232;2023-11-25T07:41:52;3.00;99.90
2973;DHT22;1496;51.404;7.232;2023-11-25T07:44:22;3.20;99.90
2973;DHT22;1496;51.404;7.232;2023-11-25T07:46:48;3.00;99.90
2973;DHT22;1496;51.404;7.232;2023-11-25T07:49:15;2.80;99.90
2973;DHT22;1496;51.404;7.232;2023-11-25T07:51:41;2.80;99.90
2973;DHT22;1496;51.404;7.232;2023-11-25T07:54:06;2.80;99.90
2973;DHT22;1496;51.404;7.232;2023-11-25T07:56:34;2.70;99.90
2973;DHT22;1496;51.404;7.232;2023-11-25T07:59:00;2.70;99.90
2973;DHT22;1496;51.404;7.232;2023-11-25T08:01:26;2.70;99.90
2973;DHT22;1496;51.404;7.232;2023-11-25T08:03:52;2.80;99.90
2973;DHT22;1496;51.404;7.232;2023-11-25T08:06:18;2.80;99.90
2973;DHT22;1496;51.404;7.232;2023-11-25T08:08:44;2.90;99.90
2973;DHT22;1496;51.404;7.232;2023-11-25T08:11:11;2.90;99.90
2973;DHT22;1496;51.404;7.232;2023-11-25T08:13:46;2.90;99.90
2973;DHT22;1496;51.404;7.232;2023-11-25T08:16:11;3.00;99.90
2973;DHT22;1496;51.404;7.232;2023-11-25T08:18:37;2.90;99.90
2973;DHT22;1496;51.404;7.232;2023-11-25T08:21:04;3.00;99.90
2973;DHT22;1496;51.404;7.232;2023-11-25T08:23:29;3.00;99.90
2973;DHT22;1496;51.404;7.232;2023-11-25T08:25:55;3.00;99.90
2973;DHT22;1496;51.404;7.232;2023-11-25T08:28:20;3.00;99.90
2973;DHT22;1496;51.404;7.232;2023-11-25T08:30:46;3.00;99.90
2973;DHT22;1496;51.404;7.232;2023-11-25T08:33:12;3.00;99.90
2973;DHT22;1496;51.404;7.232;2023-11-25T08:35:37;3.10;99.90
2973;DHT22;1496;51.404;7.232;2023-11-25T08:38:04;3.10;99.90
2973;DHT22;1496;51.404;7.232;2023-11-25T08:40:30;3.10;99.90
2973;DHT22;1496;51.404;7.232;2023-11-25T08:42:55;3.10;99.90
2973;DHT22;1496;51.404;7.232;2023-11-25T08:45:26;3.10;99.90
2973;DHT22;1496;51.404;7.232;2023-11-25T08:47:52;3.10;99.90
2973;DHT22;1496;51.404;7.232;2023-11-25T08:50:17;3.20;99.90
2973;DHT22;1496;51.404;7.232;2023-11-25T08:52:44;3.20;99.90
2973;DHT22;1496;51.404;7.232;2023-11-25T08:55:12;3.30;99.90
2973;DHT22;1496;51.404;7.232;2023-11-25T08:57:43;3.30;99.90
2973;DHT22;1496;51.404;7.232;2023-11-25T09:00:09;3.40;99.90
2973;DHT22;1496;51.404;7.232;2023-11-25T09:02:49;3.40;99.90
2973;DHT22;1496;51.404;7.232;2023-11-25T09:05:16;3.40;99.90
2973;DHT22;1496;51.404;7.232;2023-11-25T09:07:47;3.50;99.90
2973;DHT22;1496;51.404;7.232;2023-11-25T09:10:16;3.60;99.90
2973;DHT22;1496;51.404;7.232;2023-11-25T09:12:42;3.60;99.90
2973;DHT22;1496;51.404;7.232;2023-11-25T09:15:08;3.70;99.90
2973;DHT22;1496;51.404;7.232;2023-11-25T09:17:34;3.80;99.90
2973;DHT22;1496;51.404;7.232;2023-11-25T09:20:06;3.80;99.90
2973;DHT22;1496;51.404;7.232;2023-11-25T09:22:36;3.80;99.90
2973;DHT22;1496;51.404;7.232;2023-11-25T09:25:05;3.80;99.90
2973;DHT22;1496;51.404;7.232;2023-11-25T09:27:31;3.80;99.90
2973;DHT22;1496;51.404;7.232;2023-11-25T09:29:57;3.80;99.90
2973;DHT22;1496;51.404;7.232;2023-11-25T09:32:23;3.70;99.90
2973;DHT22;1496;51.404;7.232;2023-11-25T09:34:53;3.80;99.90
2973;DHT22;1496;51.404;7.232;2023-11-25T09:37:19;3.80;99.90
2973;DHT22;1496;51.404;7.232;2023-11-25T09:39:46;3.70;99.90
2973;DHT22;1496;51.404;7.232;2023-11-25T09:42:11;3.70;99.90
2973;DHT22;1496;51.404;7.232;2023-11-25T09:44:39;3.70;99.90
2973;DHT22;1496;51.404;7.232;2023-11-25T09:47:05;3.80;99.90
2973;DHT22;1496;51.404;7.232;2023-11-25T09:49:31;3.80;99.90
2973;DHT22;1496;51.404;7.232;2023-11-25T09:52:04;3.90;99.90
2973;DHT22;1496;51.404;7.232;2023-11-25T09:54:34;3.90;99.90
2973;DHT22;1496;51.404;7.232;2023-11-25T09:57:01;4.00;99.90
2973;DHT22;1496;51.404;7.232;2023-11-25T09:59:29;4.00;99.90
2973;DHT22;1496;51.404;7.232;2023-11-25T10:01:55;3.90;99.90
2973;DHT22;1496;51.404;7.232;2023-11-25T10:04:26;4.00;99.90
2973;DHT22;1496;51.404;7.232;2023-11-25T10:06:55;4.10;99.90
2973;DHT22;1496;51.404;7.232;2023-11-25T10:09:21;4.20;99.90
2973;DHT22;1496;51.404;7.232;2023-11-25T10:11:47;4.20;1.00
2973;DHT22;1496;51.404;7.232;2023-11-25T10:14:14;4.30;99.90
2973;DHT22;1496;51.404;7.232;2023-11-25T10:16:40;4.30;99.90
2973;DHT22;1496;51.404;7.232;2023-11-25T10:19:20;4.40;99.90
2973;DHT22;1496;51.404;7.232;2023-11-25T10:21:50;4.30;42.10
2973;DHT22;1496;51.404;7.232;2023-11-25T10:24:17;4.30;1.00
2973;DHT22;1496;51.404;7.232;2023-11-25T10:26:43;4.30;1.00
2973;DHT22;1496;51.404;7.232;2023-11-25T10:29:12;4.30;1.00
2973;DHT22;1496;51.404;7.232;2023-11-25T10:31:44;4.30;1.00
2973;DHT22;1496;51.404;7.232;2023-11-25T10:34:12;4.30;1.00
2973;DHT22;1496;51.404;7.232;2023-11-25T10:36:39;4.20;1.00
2973;DHT22;1496;51.404;7.232;2023-11-25T10:39:32;4.20;1.00
2973;DHT22;1496;51.404;7.232;2023-11-25T10:42:01;4.10;1.00
2973;DHT22;1496;51.404;7.232;2023-11-25T10:44:28;4.10;1.00
2973;DHT22;1496;51.404;7.232;2023-11-25T10:46:54;4.10;1.00
2973;DHT22;1496;51.404;7.232;2023-11-25T10:49:22;4.20;1.00
2973;DHT22;1496;51.404;7.232;2023-11-25T10:51:51;4.30;1.00
2973;DHT22;1496;51.404;7.232;2023-11-25T10:54:22;4.30;1.00
2973;DHT22;1496;51.404;7.232;2023-11-25T10:56:54;4.30;1.00
2973;DHT22;1496;51.404;7.232;2023-11-25T10:59:20;4.40;1.00
2973;DHT22;1496;51.404;7.232;2023-11-25T11:01:50;4.40;1.00
2973;DHT22;1496;51.404;7.232;2023-11-25T11:04:32;4.40;1.00
2973;DHT22;1496;51.404;7.232;2023-11-25T11:07:02;4.50;1.00
2973;DHT22;1496;51.404;7.232;2023-11-25T11:09:32;4.50;1.00
2973;DHT22;1496;51.404;7.232;2023-11-25T11:12:12;4.60;1.00
2973;DHT22;1496;51.404;7.232;2023-11-25T11:14:50;4.70;1.00
2973;DHT22;1496;51.404;7.232;2023-11-25T11:17:26;4.70;1.00
2973;DHT22;1496;51.404;7.232;2023-11-25T11:19:55;4.90;1.00
2973;DHT22;1496;51.404;7.232;2023-11-25T11:22:24;4.90;99.90
2973;DHT22;1496;51.404;7.232;2023-11-25T11:32:59;4.90;99.90
2973;DHT22;1496;51.404;7.232;2023-11-25T11:35:35;5.00;99.90
2973;DHT22;1496;51.404;7.232;2023-11-25T11:38:26;5.00;99.90
2973;DHT22;1496;51.404;7.232;2023-11-25T11:40:55;5.00;68.40
2973;DHT22;1496;51.404;7.232;2023-11-25T11:43:21;4.90;22.40
2973;DHT22;1496;51.404;7.232;2023-11-25T11:45:48;4.90;24.20
2973;DHT22;1496;51.404;7.232;2023-11-25T11:48:14;5.00;1.00
2973;DHT22;1496;51.404;7.232;2023-11-25T11:50:42;5.00;1.00
2973;DHT22;1496;51.404;7.232;2023-11-25T11:55:53;5.10;1.00
2973;DHT22;1496;51.404;7.232;2023-11-25T11:58:26;5.20;1.00
2973;DHT22;1496;51.404;7.232;2023-11-25T12:03:28;5.30;1.00
2973;DHT22;1496;51.404;7.232;2023-11-25T12:05:55;5.30;1.00
2973;DHT22;1496;51.404;7.232;2023-11-25T12:08:22;5.20;1.00
2973;DHT22;1496;51.404;7.232;2023-11-25T12:10:48;5.10;1.00
2973;DHT22;1496;51.404;7.232;2023-11-25T12:15:56;5.20;1.00
2973;DHT22;1496;51.404;7.232;2023-11-25T12:18:29;5.20;1.00
2973;DHT22;1496;51.404;7.232;2023-11-25T12:20:56;5.20;1.00
2973;DHT22;1496;51.404;7.232;2023-11-25T12:23:24;5.20;1.00
2973;DHT22;1496;51.404;7.232;2023-11-25T12:25:50;5.10;1.00
2973;DHT22;1496;51.404;7.232;2023-11-25T12:28:16;5.10;1.00
2973;DHT22;1496;51.404;7.232;2023-11-25T12:30:43;5.20;1.00
2973;DHT22;1496;51.404;7.232;2023-11-25T12:33:09;5.20;1.00
2973;DHT22;1496;51.404;7.232;2023-11-25T12:35:38;5.20;1.00
2973;DHT22;1496;51.404;7.232;2023-11-25T12:38:03;5.10;1.00
2973;DHT22;1496;51.404;7.232;2023-11-25T12:40:33;5.10;1.00
2973;DHT22;1496;51.404;7.232;2023-11-25T12:43:00;5.00;1.00
2973;DHT22;1496;51.404;7.232;2023-11-25T12:45:38;5.10;1.00
2973;DHT22;1496;51.404;7.232;2023-11-25T12:48:08;5.10;1.00
2973;DHT22;1496;51.404;7.232;2023-11-25T12:50:59;5.10;1.00
2973;DHT22;1496;51.404;7.232;2023-11-25T12:53:51;5.10;1.00
2973;DHT22;1496;51.404;7.232;2023-11-25T12:56:17;5.10;1.00
2973;DHT22;1496;51.404;7.232;2023-11-25T12:58:43;5.10;1.00
2973;DHT22;1496;51.404;7.232;2023-11-25T13:01:09;5.10;1.00
2973;DHT22;1496;51.404;7.232;2023-11-25T13:03:36;5.10;1.00
2973;DHT22;1496;51.404;7.232;2023-11-25T13:06:03;5.20;1.00
2973;DHT22;1496;51.404;7.232;2023-11-25T13:08:36;5.20;1.00
2973;DHT22;1496;51.404;7.232;2023-11-25T13:11:07;5.20;1.00
2973;DHT22;1496;51.404;7.232;2023-11-25T13:13:38;5.10;1.00
2973;DHT22;1496;51.404;7.232;2023-11-25T13:16:04;5.00;1.00
2973;DHT22;1496;51.404;7.232;2023-11-25T13:18:30;5.10;1.00
2973;DHT22;1496;51.404;7.232;2023-11-25T13:20:59;5.00;1.00
2973;DHT22;1496;51.404;7.232;2023-11-25T13:23:27;5.10;1.00
2973;DHT22;1496;51.404;7.232;2023-11-25T13:25:53;5.20;1.00
2973;DHT22;1496;51.404;7.232;2023-11-25T13:28:19;5.20;1.00
2973;DHT22;1496;51.404;7.232;2023-11-25T13:30:44;5.20;1.00
2973;DHT22;1496;51.404;7.232;2023-11-25T13:33:11;5.20;1.00
2973;DHT22;1496;51.404;7.232;2023-11-25T13:35:44;5.20;1.00
2973;DHT22;1496;51.404;7.232;2023-11-25T13:38:11;5.20;43.20
2973;DHT22;1496;51.404;7.232;2023-11-25T13:40:38;5.30;99.90
2973;DHT22;1496;51.404;7.232;2023-11-25T13:43:09;5.30;99.90
2973;DHT22;1496;51.404;7.232;2023-11-25T13:45:35;5.40;99.90
2973;DHT22;1496;51.404;7.232;2023-11-25T13:48:01;5.30;99.90
2973;DHT22;1496;51.404;7.232;2023-11-25T13:50:30;5.40;99.90
2973;DHT22;1496;51.404;7.232;2023-11-25T13:52:56;5.40;99.90
2973;DHT22;1496;51.404;7.232;2023-11-25T13:55:22;5.40;91.20
2973;DHT22;1496;51.404;7.232;2023-11-25T13:57:52;5.50;64.70
2973;DHT22;1496;51.404;7.232;2023-11-25T14:00:18;5.50;29.90
2973;DHT22;1496;51.404;7.232;2023-11-25T14:02:48;5.50;1.00
2973;DHT22;1496;51.404;7.232;2023-11-25T14:05:15;5.50;1.00
2973;DHT22;1496;51.404;7.232;2023-11-25T14:07:41;5.50;1.00
2973;DHT22;1496;51.404;7.232;2023-11-25T14:10:10;5.50;1.00
2973;DHT22;1496;51.404;7.232;2023-11-25T14:12:37;5.60;1.00
2973;DHT22;1496;51.404;7.232;2023-11-25T14:15:05;5.60;1.00
2973;DHT22;1496;51.404;7.232;2023-11-25T14:17:32;5.70;1.00
2973;DHT22;1496;51.404;7.232;2023-11-25T14:19:58;5.60;1.00
2973;DHT22;1496;51.404;7.232;2023-11-25T14:22:24;5.60;1.00
2973;DHT22;1496;51.404;7.232;2023-11-25T14:24:50;5.50;1.00
2973;DHT22;1496;51.404;7.232;2023-11-25T14:27:16;5.50;1.00
2973;DHT22;1496;51.404;7.232;2023-11-25T14:29:41;5.40;1.00
2973;DHT22;1496;51.404;7.232;2023-11-25T14:32:12;5.50;1.00
2973;DHT22;1496;51.404;7.232;2023-11-25T14:34:38;5.40;1.00
2973;DHT22;1496;51.404;7.232;2023-11-25T14:37:06;5.50;1.00
2973;DHT22;1496;51.404;7.232;2023-11-25T14:39:32;5.50;1.00
2973;DHT22;1496;51.404;7.232;2023-11-25T14:42:03;5.40;1.00
2973;DHT22;1496;51.404;7.232;2023-11-25T14:44:30;5.40;1.00
2973;DHT22;1496;51.404;7.232;2023-11-25T14:46:56;5.30;1.00
2973;DHT22;1496;51.404;7.232;2023-11-25T14:49:22;5.40;1.00
2973;DHT22;1496;51.404;7.232;2023-11-25T14:51:50;5.40;1.00
2973;DHT22;1496;51.404;7.232;2023-11-25T14:54:20;5.40;1.00
2973;DHT22;1496;51.404;7.232;2023-11-25T14:56:48;5.40;1.00
2973;DHT22;1496;51.404;7.232;2023-11-25T14:59:14;5.40;1.00
2973;DHT22;1496;51.404;7.232;2023-11-25T15:01:46;5.30;1.00
2973;DHT22;1496;51.404;7.232;2023-11-25T15:04:14;5.30;1.00
2973;DHT22;1496;51.404;7.232;2023-11-25T15:06:40;5.30;99.90
2973;DHT22;1496;51.404;7.232;2023-11-25T15:09:06;5.40;1.00
2973;DHT22;1496;51.404;7.232;2023-11-25T15:11:33;5.40;1.00
2973;DHT22;1496;51.404;7.232;2023-11-25T15:14:01;5.50;1.00
2973;DHT22;1496;51.404;7.232;2023-11-25T15:16:28;5.40;1.00
2973;DHT22;1496;51.404;7.232;2023-11-25T15:18:54;5.40;1.00
2973;DHT22;1496;51.404;7.232;2023-11-25T15:21:20;5.40;1.00
2973;DHT22;1496;51.404;7.232;2023-11-25T15:23:46;5.40;1.00
2973;DHT22;1496;51.404;7.232;2023-11-25T15:26:12;5.30;1.00
2973;DHT22;1496;51.404;7.232;2023-11-25T15:28:39;5.20;1.00
2973;DHT22;1496;51.404;7.232;2023-11-25T15:31:11;5.30;1.00
2973;DHT22;1496;51.404;7.232;2023-11-25T15:33:38;5.30;1.00
2973;DHT22;1496;51.404;7.232;2023-11-25T15:36:06;5.20;1.00
2973;DHT22;1496;51.404;7.232;2023-11-25T15:38:31;5.10;1.00
2973;DHT22;1496;51.404;7.232;2023-11-25T15:40:57;5.10;1.00
2973;DHT22;1496;51.404;7.232;2023-11-25T15:43:23;5.00;1.00
2973;DHT22;1496;51.404;7.232;2023-11-25T15:45:49;5.00;1.00
2973;DHT22;1496;51.404;7.232;2023-11-25T15:48:14;5.00;1.00
2973;DHT22;1496;51.404;7.232;2023-11-25T15:50:40;5.00;1.00
2973;DHT22;1496;51.404;7.232;2023-11-25T15:53:06;5.10;1.00
2973;DHT22;1496;51.404;7.232;2023-11-25T15:55:34;5.10;1.00
2973;DHT22;1496;51.404;7.232;2023-11-25T15:58:01;5.20;1.00
2973;DHT22;1496;51.404;7.232;2023-11-25T16:00:26;5.20;1.00
2973;DHT22;1496;51.404;7.232;2023-11-25T16:02:52;5.30;1.00
2973;DHT22;1496;51.404;7.232;2023-11-25T16:05:18;5.30;1.00
2973;DHT22;1496;51.404;7.232;2023-11-25T16:07:44;5.20;1.00
2973;DHT22;1496;51.404;7.232;2023-11-25T16:10:11;5.30;1.00
2973;DHT22;1496;51.404;7.232;2023-11-25T16:12:37;5.40;1.00
2973;DHT22;1496;51.404;7.232;2023-11-25T16:15:07;4.80;99.90
2973;DHT22;1496;51.404;7.232;2023-11-25T16:17:36;4.80;99.90
2973;DHT22;1496;51.404;7.232;2023-11-25T16:20:02;4.60;99.90
2973;DHT22;1496;51.404;7.232;2023-11-25T16:22:31;4.60;99.90
2973;DHT22;1496;51.404;7.232;2023-11-25T16:24:56;4.60;99.90
2973;DHT22;1496;51.404;7.232;2023-11-25T16:27:22;4.60;99.90
2973;DHT22;1496;51.404;7.232;2023-11-25T16:29:49;4.60;99.90
2973;DHT22;1496;51.404;7.232;2023-11-25T16:32:17;4.60;99.90
2973;DHT22;1496;51.404;7.232;2023-11-25T16:34:46;4.50;99.90
2973;DHT22;1496;51.404;7.232;2023-11-25T16:37:12;4.60;99.90
2973;DHT22;1496;51.404;7.232;2023-11-25T16:39:38;4.50;99.90
2973;DHT22;1496;51.404;7.232;2023-11-25T16:42:05;4.50;99.90
2973;DHT22;1496;51.404;7.232;2023-11-25T16:44:32;4.50;99.90